Time;durP1;ratioP1;P1;durP2;ratioP2;P2;SDS_P1;SDS_P2;PMS_P1;PMS_P2;Temp;Humidity;BMP_temperature;BMP_pressure;BME280_temperature;BME280_humidity;BME280_pressure;Samples;Min_cycle;Max_cycle;Signal;HPM_P1;HPM_P2
2021/09/26 00:02:39;;;;;;;34.55;28.25;;;;;;;;;;6246036;28;20052;-72
2021/09/26 00:05:40;;;;;;;35.28;28.20;;;;;;;;;;6250468;28;20206;-72
2021/09/26 00:08:42;;;;;;;32.08;26.95;;;;;;;;;;6261488;28;21078;-72
2021/09/26 00:11:43;;;;;;;36.28;29.75;;;;;;;;;;6248529;28;20466;-72
2021/09/26 00:14:46;;;;;;;36.80;30.80;;;;;;;;;;6261916;28;20088;-71
2021/09/26 00:17:49;;;;;;;38.38;30.20;;;;;;;;;;6251340;28;20047;-73
2021/09/26 00:20:50;;;;;;;37.78;31.08;;;;;;;;;;6251516;28;20074;-72
2021/09/26 00:23:53;;;;;;;36.05;28.60;;;;;;;;;;6263422;28;20090;-72
2021/09/26 00:26:55;;;;;;;34.78;28.33;;;;;;;;;;6254642;28;20049;-72
2021/09/26 00:29:58;;;;;;;37.05;29.17;;;;;;;;;;6260342;28;20045;-72
2021/09/26 00:33:00;;;;;;;34.13;28.35;;;;;;;;;;6249914;28;20049;-71
2021/09/26 00:36:01;;;;;;;35.70;28.17;;;;;;;;;;6252808;28;20051;-72
2021/09/26 00:39:03;;;;;;;36.35;27.73;;;;;;;;;;6259896;28;20049;-71
2021/09/26 00:42:05;;;;;;;31.10;27.35;;;;;;;;;;6249399;28;20409;-72
2021/09/26 00:45:09;;;;;;;35.25;28.67;;;;;;;;;;6258163;28;20060;-74
2021/09/26 00:48:11;;;;;;;38.70;29.20;;;;;;;;;;6249859;28;20051;-72
2021/09/26 00:51:13;;;;;;;33.25;28.77;;;;;;;;;;6254134;28;20147;-71
2021/09/26 00:54:16;;;;;;;31.60;26.67;;;;;;;;;;6267221;28;20828;-73
2021/09/26 00:57:18;;;;;;;33.38;26.55;;;;;;;;;;6257110;28;20106;-73
2021/09/26 01:00:21;;;;;;;32.08;25.90;;;;;;;;;;6261471;28;20198;-74
2021/09/26 01:03:23;;;;;;;29.35;25.55;;;;;;;;;;6254999;28;20056;-74
2021/09/26 01:06:31;;;;;;;30.30;25.40;;;;;;;;;;6260727;28;20486;-73
2021/09/26 01:09:37;;;;;;;31.70;26.35;;;;;;;;;;6264636;28;20531;-72
2021/09/26 01:12:48;;;;;;;28.23;24.10;;;;;;;;;;6255059;28;20136;-72
2021/09/26 01:16:05;;;;;;;29.90;23.85;;;;;;;;;;6258992;28;20060;-72
2021/09/26 01:19:23;;;;;;;28.65;23.80;;;;;;;;;;6259950;28;20049;-72
2021/09/26 01:22:33;;;;;;;28.00;23.75;;;;;;;;;;6260165;28;20053;-75
2021/09/26 01:25:51;;;;;;;26.77;23.52;;;;;;;;;;6259059;28;20045;-72
2021/09/26 01:29:01;;;;;;;26.13;22.88;;;;;;;;;;6270133;28;20037;-72
2021/09/26 01:32:08;;;;;;;27.85;23.02;;;;;;;;;;6247277;28;20049;-72
2021/09/26 01:35:11;;;;;;;27.50;23.33;;;;;;;;;;6268551;28;20053;-74
2021/09/26 01:38:24;;;;;;;32.17;23.70;;;;;;;;;;6258253;28;20047;-78
2021/09/26 01:41:32;;;;;;;27.50;22.27;;;;;;;;;;6261977;28;20087;-72
2021/09/26 01:44:38;;;;;;;27.48;22.65;;;;;;;;;;6266240;28;20051;-71
2021/09/26 01:47:44;;;;;;;25.10;22.42;;;;;;;;;;6254927;28;20067;-72
2021/09/26 01:50:46;;;;;;;28.65;22.35;;;;;;;;;;6254856;28;20131;-76
2021/09/26 01:53:49;;;;;;;28.37;23.73;;;;;;;;;;6265613;28;20180;-72
2021/09/26 01:56:51;;;;;;;29.42;24.80;;;;;;;;;;6257383;28;20113;-72
2021/09/26 01:59:54;;;;;;;30.83;24.53;;;;;;;;;;6263490;28;20496;-72
2021/09/26 02:02:58;;;;;;;32.90;25.58;;;;;;;;;;6251419;28;20053;-71
2021/09/26 02:05:59;;;;;;;30.10;24.95;;;;;;;;;;6254936;28;20136;-72
2021/09/26 02:09:01;;;;;;;31.48;26.20;;;;;;;;;;6266022;28;20536;-72
2021/09/26 02:12:04;;;;;;;32.03;27.75;;;;;;;;;;6257578;28;20045;-73
2021/09/26 02:15:09;;;;;;;32.67;27.03;;;;;;;;;;6267021;28;20647;-74
2021/09/26 02:18:12;;;;;;;28.40;25.20;;;;;;;;;;6255154;28;20511;-76
2021/09/26 02:21:15;;;;;;;34.20;26.35;;;;;;;;;;6252533;28;20133;-71
2021/09/26 02:24:17;;;;;;;36.77;28.03;;;;;;;;;;6270088;28;20178;-73
2021/09/26 02:27:19;;;;;;;33.50;26.90;;;;;;;;;;6265086;28;20693;-71
2021/09/26 02:30:20;;;;;;;36.05;27.75;;;;;;;;;;6262221;28;20174;-76
2021/09/26 02:33:23;;;;;;;34.50;27.15;;;;;;;;;;6256805;28;20033;-77
2021/09/26 02:36:25;;;;;;;34.33;27.52;;;;;;;;;;6256007;28;20182;-72
2021/09/26 02:39:26;;;;;;;38.70;30.23;;;;;;;;;;6262857;28;20040;-72
2021/09/26 02:42:33;;;;;;;39.15;31.50;;;;;;;;;;6259158;28;20120;-72
2021/09/26 02:45:38;;;;;;;38.30;32.55;;;;;;;;;;6265136;28;20190;-72
2021/09/26 02:48:41;;;;;;;38.10;32.63;;;;;;;;;;6284672;28;20101;-71
2021/09/26 02:51:44;;;;;;;39.38;32.20;;;;;;;;;;6282738;28;20054;-72
2021/09/26 02:54:46;;;;;;;39.33;33.63;;;;;;;;;;6285319;28;20094;-71
2021/09/26 02:57:47;;;;;;;42.55;34.17;;;;;;;;;;6279688;28;20140;-71
2021/09/26 03:00:50;;;;;;;41.80;33.38;;;;;;;;;;6280477;28;20831;-72
2021/09/26 03:03:53;;;;;;;41.63;34.73;;;;;;;;;;6282995;28;20190;-72
2021/09/26 03:06:55;;;;;;;42.35;34.85;;;;;;;;;;6278211;28;20070;-74
2021/09/26 03:09:56;;;;;;;43.10;34.38;;;;;;;;;;6287786;28;20135;-71
2021/09/26 03:12:58;;;;;;;46.38;37.53;;;;;;;;;;6280740;28;20032;-71
2021/09/26 03:15:59;;;;;;;43.60;34.60;;;;;;;;;;6278492;28;20059;-73
2021/09/26 03:19:02;;;;;;;42.55;34.17;;;;;;;;;;6285675;28;20040;-73
2021/09/26 03:22:05;;;;;;;45.60;34.95;;;;;;;;;;6277925;28;20045;-73
2021/09/26 03:25:07;;;;;;;41.45;34.90;;;;;;;;;;6294303;28;20129;-75
2021/09/26 03:28:09;;;;;;;42.75;35.22;;;;;;;;;;6285749;28;20390;-72
2021/09/26 03:31:10;;;;;;;44.58;35.22;;;;;;;;;;6275496;28;20123;-71
2021/09/26 03:34:13;;;;;;;49.38;34.80;;;;;;;;;;6283971;28;20119;-72
2021/09/26 03:37:15;;;;;;;42.47;35.60;;;;;;;;;;6281971;28;20695;-72
2021/09/26 03:40:17;;;;;;;43.28;33.45;;;;;;;;;;6281787;28;20066;-76
2021/09/26 03:43:18;;;;;;;43.75;34.30;;;;;;;;;;6284950;28;20133;-72
2021/09/26 03:46:20;;;;;;;41.88;33.58;;;;;;;;;;6259159;28;20493;-72
2021/09/26 03:49:24;;;;;;;45.38;34.30;;;;;;;;;;6261787;28;20203;-70
2021/09/26 03:52:25;;;;;;;;;;;;;;;;;;6254633;28;20045;-75
2021/09/26 03:55:27;;;;;;;39.47;33.45;;;;;;;;;;6257526;28;20007;-70
2021/09/26 03:58:29;;;;;;;45.35;33.28;;;;;;;;;;6246327;28;20060;-71
2021/09/26 04:01:30;;;;;;;42.15;34.55;;;;;;;;;;6246640;28;20190;-74
2021/09/26 04:04:33;;;;;;;39.53;31.83;;;;;;;;;;6260641;28;20091;-70
2021/09/26 04:07:35;;;;;;;44.13;33.13;;;;;;;;;;6251081;28;20615;-71
2021/09/26 04:10:37;;;;;;;39.33;32.92;;;;;;;;;;6257343;28;20399;-71
2021/09/26 04:13:38;;;;;;;41.28;31.52;;;;;;;;;;6266305;28;20090;-70
2021/09/26 04:16:40;;;;;;;39.03;31.73;;;;;;;;;;6250421;28;20045;-71
2021/09/26 04:19:43;;;;;;;37.30;30.73;;;;;;;;;;6262203;28;20163;-69
2021/09/26 04:22:45;;;;;;;34.17;28.65;;;;;;;;;;6224598;28;20425;-71
2021/09/26 04:25:46;;;;;;;35.10;28.00;;;;;;;;;;6261171;28;20047;-71
2021/09/26 04:28:48;;;;;;;34.50;28.05;;;;;;;;;;6267714;28;20183;-69
2021/09/26 04:31:50;;;;;;;35.83;27.25;;;;;;;;;;6257763;28;20133;-68
2021/09/26 04:34:53;;;;;;;33.33;27.10;;;;;;;;;;6268150;28;20041;-68
2021/09/26 04:37:56;;;;;;;35.38;27.08;;;;;;;;;;6264619;28;20139;-75
2021/09/26 04:40:58;;;;;;;34.72;26.98;;;;;;;;;;6263158;28;20037;-71
2021/09/26 04:43:59;;;;;;;32.08;26.50;;;;;;;;;;6267083;28;20124;-69
2021/09/26 04:47:01;;;;;;;32.30;26.52;;;;;;;;;;6258699;28;20178;-70
2021/09/26 04:50:05;;;;;;;30.33;24.85;;;;;;;;;;6264239;28;20053;-75
2021/09/26 04:53:07;;;;;;;31.10;24.77;;;;;;;;;;6263595;28;20049;-69
2021/09/26 04:56:08;;;;;;;30.88;25.70;;;;;;;;;;6264287;28;20124;-69
2021/09/26 04:59:10;;;;;;;29.73;24.25;;;;;;;;;;6270429;28;20174;-68
2021/09/26 05:02:12;;;;;;;29.70;23.83;;;;;;;;;;6259709;28;20171;-70
2021/09/26 05:05:15;;;;;;;28.92;23.40;;;;;;;;;;6263786;28;20171;-76
2021/09/26 05:08:16;;;;;;;32.95;23.80;;;;;;;;;;6261727;28;20186;-70
2021/09/26 05:11:18;;;;;;;32.55;24.40;;;;;;;;;;6260400;28;20041;-68
2021/09/26 05:14:19;;;;;;;27.65;23.17;;;;;;;;;;6256852;28;20489;-69
2021/09/26 05:17:21;;;;;;;26.17;22.88;;;;;;;;;;6255464;28;20198;-69
2021/09/26 05:20:24;;;;;;;29.33;22.92;;;;;;;;;;6259706;28;20060;-74
2021/09/26 05:23:26;;;;;;;31.55;22.98;;;;;;;;;;6265664;28;20124;-68
2021/09/26 05:26:27;;;;;;;31.90;24.00;;;;;;;;;;6261527;28;20053;-70
2021/09/26 05:29:29;;;;;;;31.52;23.40;;;;;;;;;;6261925;28;20144;-69
2021/09/26 05:32:30;;;;;;;33.10;25.05;;;;;;;;;;6254929;28;20077;-72
2021/09/26 05:35:33;;;;;;;31.05;24.65;;;;;;;;;;6261394;28;20532;-74
2021/09/26 05:38:35;;;;;;;31.67;25.58;;;;;;;;;;6255166;28;20177;-71
2021/09/26 05:41:36;;;;;;;32.28;24.33;;;;;;;;;;6257812;28;20689;-71
2021/09/26 05:44:38;;;;;;;33.40;24.27;;;;;;;;;;6266970;28;20084;-72
2021/09/26 05:47:40;;;;;;;29.50;24.67;;;;;;;;;;6254745;28;20059;-71
2021/09/26 05:50:43;;;;;;;30.88;23.27;;;;;;;;;;6263998;28;20986;-71
2021/09/26 05:53:45;;;;;;;28.33;23.60;;;;;;;;;;6270305;28;20045;-70
2021/09/26 05:56:47;;;;;;;29.55;24.05;;;;;;;;;;6258533;28;20106;-71
2021/09/26 05:59:48;;;;;;;28.77;22.75;;;;;;;;;;6264620;28;20063;-71
2021/09/26 06:02:50;;;;;;;27.23;22.85;;;;;;;;;;6254543;28;20608;-71
2021/09/26 06:05:53;;;;;;;30.75;23.02;;;;;;;;;;6252303;28;20037;-71
2021/09/26 06:08:54;;;;;;;30.02;23.50;;;;;;;;;;6266262;28;20053;-71
2021/09/26 06:11:56;;;;;;;26.40;22.00;;;;;;;;;;6256648;28;20493;-70
2021/09/26 06:14:58;;;;;;;28.00;22.67;;;;;;;;;;6264605;28;20101;-72
2021/09/26 06:18:00;;;;;;;27.65;22.23;;;;;;;;;;6251211;28;20041;-71
2021/09/26 06:21:03;;;;;;;31.58;23.20;;;;;;;;;;6260685;28;20489;-70
2021/09/26 06:24:05;;;;;;;25.02;21.35;;;;;;;;;;6257082;28;20123;-70
2021/09/26 06:27:07;;;;;;;28.58;22.13;;;;;;;;;;6260623;28;20049;-70
2021/09/26 06:30:10;;;;;;;37.60;23.25;;;;;;;;;;6262866;28;20128;-74
2021/09/26 06:33:11;;;;;;;24.67;21.00;;;;;;;;;;6260914;28;20553;-71
2021/09/26 06:36:14;;;;;;;28.13;22.70;;;;;;;;;;6249987;28;20638;-71
2021/09/26 06:39:16;;;;;;;34.25;22.92;;;;;;;;;;6277597;28;20709;-71
2021/09/26 06:42:18;;;;;;;29.30;23.58;;;;;;;;;;6251516;28;20142;-71
2021/09/26 06:45:19;;;;;;;28.95;23.35;;;;;;;;;;6251465;28;20056;-73
2021/09/26 06:48:21;;;;;;;34.10;24.02;;;;;;;;;;6266401;28;20122;-74
2021/09/26 06:51:24;;;;;;;34.75;24.60;;;;;;;;;;6267220;28;20045;-70
2021/09/26 06:54:25;;;;;;;36.33;29.97;;;;;;;;;;6275474;28;20116;-70
2021/09/26 06:57:28;;;;;;;44.38;33.17;;;;;;;;;;6267146;28;20477;-71
2021/09/26 07:00:29;;;;;;;50.53;35.40;;;;;;;;;;6262053;28;20071;-75
2021/09/26 07:03:31;;;;;;;58.53;39.20;;;;;;;;;;6263100;28;20558;-71
2021/09/26 07:06:34;;;;;;;64.53;43.33;;;;;;;;;;6258147;28;20140;-71
2021/09/26 07:09:36;;;;;;;85.45;49.20;;;;;;;;;;6267054;28;20133;-70
2021/09/26 07:12:37;;;;;;;92.55;51.60;;;;;;;;;;6258098;28;20128;-70
2021/09/26 07:15:39;;;;;;;87.88;51.25;;;;;;;;;;6258726;28;20132;-71
2021/09/26 07:18:41;;;;;;;86.43;51.20;;;;;;;;;;6261464;28;20045;-70
2021/09/26 07:21:43;;;;;;;81.13;51.10;;;;;;;;;;6259621;28;20094;-71
2021/09/26 07:24:45;;;;;;;84.87;52.07;;;;;;;;;;6264991;28;20036;-72
2021/09/26 07:27:47;;;;;;;85.65;54.47;;;;;;;;;;6263609;28;20167;-70
2021/09/26 07:30:48;;;;;;;90.78;55.88;;;;;;;;;;6255522;28;20128;-71
2021/09/26 07:33:51;;;;;;;127.32;62.10;;;;;;;;;;6260984;28;20045;-71
2021/09/26 07:36:53;;;;;;;201.05;71.80;;;;;;;;;;6254037;28;20089;-71
2021/09/26 07:39:55;;;;;;;189.07;70.90;;;;;;;;;;6262229;28;20097;-69
2021/09/26 07:42:57;;;;;;;309.55;75.88;;;;;;;;;;6258813;28;20679;-71
2021/09/26 07:45:58;;;;;;;261.50;78.47;;;;;;;;;;6257266;28;20109;-71
2021/09/26 07:49:02;;;;;;;198.70;77.68;;;;;;;;;;6259790;28;20078;-69
2021/09/26 07:52:06;;;;;;;479.90;93.32;;;;;;;;;;6255917;28;21567;-69
2021/09/26 07:55:09;;;;;;;151.88;74.63;;;;;;;;;;6263213;28;20175;-73
2021/09/26 07:58:10;;;;;;;151.67;69.97;;;;;;;;;;6258161;28;20060;-69
2021/09/26 08:01:12;;;;;;;282.10;73.60;;;;;;;;;;6253050;28;20049;-71
2021/09/26 08:04:13;;;;;;;165.15;69.38;;;;;;;;;;6256536;28;20080;-70
2021/09/26 08:07:32;;;;;;;203.18;71.45;;;;;;;;;;6258279;28;20053;-72
2021/09/26 08:10:52;;;;;;;145.48;64.32;;;;;;;;;;6266693;28;20855;-75
2021/09/26 08:14:12;;;;;;;264.70;68.85;;;;;;;;;;6268901;28;20120;-71
2021/09/26 08:17:14;;;;;;;247.98;67.15;;;;;;;;;;6256827;28;20784;-73
2021/09/26 08:20:17;;;;;;;293.20;70.97;;;;;;;;;;6259527;28;20171;-75
2021/09/26 08:23:20;;;;;;;139.40;60.38;;;;;;;;;;6259712;28;20048;-69
2021/09/26 08:26:22;;;;;;;125.30;57.63;;;;;;;;;;6259176;28;20049;-69
2021/09/26 08:29:24;;;;;;;175.35;60.80;;;;;;;;;;6264088;28;20065;-70
2021/09/26 08:32:26;;;;;;;281.35;67.75;;;;;;;;;;6254549;28;20052;-71
2021/09/26 08:35:28;;;;;;;146.02;64.28;;;;;;;;;;6258270;28;20048;-71
2021/09/26 08:38:31;;;;;;;251.18;68.05;;;;;;;;;;6261470;28;20106;-76
2021/09/26 08:41:33;;;;;;;251.63;67.70;;;;;;;;;;6259074;28;20183;-72
2021/09/26 08:44:34;;;;;;;230.77;64.55;;;;;;;;;;6265796;28;20110;-68
2021/09/26 08:47:39;;;;;;;140.27;56.35;;;;;;;;;;6251441;28;20075;-76
2021/09/26 08:50:43;;;;;;;118.00;50.22;;;;;;;;;;6258087;28;20548;-69
2021/09/26 08:53:46;;;;;;;141.63;50.22;;;;;;;;;;6260765;28;20126;-70
2021/09/26 08:56:47;;;;;;;128.93;48.37;;;;;;;;;;6223322;28;20178;-69
2021/09/26 08:59:49;;;;;;;157.10;52.17;;;;;;;;;;6258812;28;20838;-71
2021/09/26 09:02:50;;;;;;;166.52;54.70;;;;;;;;;;6247716;28;20200;-69
2021/09/26 09:05:54;;;;;;;172.68;55.13;;;;;;;;;;6254497;28;20094;-69
2021/09/26 09:09:06;;;;;;;163.32;53.00;;;;;;;;;;6265691;28;20488;-71
2021/09/26 09:12:10;;;;;;;124.80;52.80;;;;;;;;;;6260669;28;20081;-70
2021/09/26 09:15:13;;;;;;;175.82;55.88;;;;;;;;;;6269285;28;20049;-82
2021/09/26 09:18:15;;;;;;;167.25;55.70;;;;;;;;;;6253753;28;20527;-75
2021/09/26 09:21:19;;;;;;;146.90;53.45;;;;;;;;;;6263110;28;20487;-72
2021/09/26 09:24:25;;;;;;;122.45;53.70;;;;;;;;;;6259569;28;20087;-71
2021/09/26 09:27:26;;;;;;;130.88;52.15;;;;;;;;;;6266986;28;20044;-72
2021/09/26 09:30:30;;;;;;;105.97;49.67;;;;;;;;;;6267003;28;20112;-71
2021/09/26 09:33:36;;;;;;;121.47;51.40;;;;;;;;;;6263901;28;20045;-71
2021/09/26 09:36:37;;;;;;;87.88;47.95;;;;;;;;;;6260990;28;20044;-72
2021/09/26 09:39:41;;;;;;;80.47;46.17;;;;;;;;;;6262250;28;20053;-72
2021/09/26 09:42:44;;;;;;;75.22;44.40;;;;;;;;;;6256615;28;20092;-71
2021/09/26 09:45:52;;;;;;;70.55;44.38;;;;;;;;;;6254526;28;20095;-73
2021/09/26 09:49:08;;;;;;;68.30;43.60;;;;;;;;;;6256460;28;20052;-71
2021/09/26 09:52:10;;;;;;;73.10;44.38;;;;;;;;;;6252898;28;20045;-73
2021/09/26 09:55:19;;;;;;;81.32;45.38;;;;;;;;;;6263012;28;20049;-75
2021/09/26 09:58:20;;;;;;;69.13;42.92;;;;;;;;;;6263319;28;20124;-71
2021/09/26 10:01:27;;;;;;;69.78;42.67;;;;;;;;;;6254780;28;20045;-72
2021/09/26 10:04:36;;;;;;;70.38;45.53;;;;;;;;;;6267986;28;20132;-71
2021/09/26 10:07:42;;;;;;;55.65;41.92;;;;;;;;;;6264855;28;20049;-72
2021/09/26 10:10:45;;;;;;;62.65;43.05;;;;;;;;;;6264210;28;20059;-71
2021/09/26 10:13:47;;;;;;;69.93;45.88;;;;;;;;;;6265820;28;20131;-71
2021/09/26 10:16:49;;;;;;;71.22;45.72;;;;;;;;;;6250687;28;20056;-74
2021/09/26 10:19:51;;;;;;;73.88;47.45;;;;;;;;;;6263511;28;20580;-72
2021/09/26 10:22:53;;;;;;;63.97;44.65;;;;;;;;;;6261574;28;20128;-72
2021/09/26 10:25:57;;;;;;;75.55;46.78;;;;;;;;;;6257463;28;20040;-72
2021/09/26 10:28:59;;;;;;;69.38;47.00;;;;;;;;;;6270215;28;20132;-71
2021/09/26 10:32:03;;;;;;;67.28;46.10;;;;;;;;;;6253539;28;20171;-71
2021/09/26 10:35:06;;;;;;;65.30;46.17;;;;;;;;;;6273804;28;20053;-74
2021/09/26 10:38:10;;;;;;;63.20;45.00;;;;;;;;;;6259006;28;20132;-71
2021/09/26 10:41:12;;;;;;;62.25;44.35;;;;;;;;;;6261532;28;20045;-71
2021/09/26 10:44:25;;;;;;;66.50;44.80;;;;;;;;;;6261957;28;20086;-72
2021/09/26 10:47:27;;;;;;;60.53;44.10;;;;;;;;;;6248736;28;20467;-72
2021/09/26 10:50:35;;;;;;;62.38;42.92;;;;;;;;;;6254012;28;20037;-74
2021/09/26 10:53:37;;;;;;;54.10;41.20;;;;;;;;;;6258777;28;20049;-71
2021/09/26 10:56:40;;;;;;;54.90;40.17;;;;;;;;;;6252495;28;20147;-72
2021/09/26 10:59:43;;;;;;;55.40;40.45;;;;;;;;;;6262235;28;20132;-72
2021/09/26 11:02:46;;;;;;;56.25;39.28;;;;;;;;;;6250292;28;20131;-74
2021/09/26 11:05:48;;;;;;;;;;;;;;;;;;6258635;28;20478;-72
2021/09/26 11:08:53;;;;;;;50.15;36.58;;;;;;;;;;6260932;28;21243;-71
2021/09/26 11:11:55;;;;;;;52.15;38.58;;;;;;;;;;6258827;28;20324;-72
2021/09/26 11:15:01;;;;;;;51.60;37.92;;;;;;;;;;6262022;28;20159;-72
2021/09/26 11:18:03;;;;;;;45.67;35.92;;;;;;;;;;6257404;28;20430;-73
2021/09/26 11:21:04;;;;;;;44.53;34.78;;;;;;;;;;6259407;28;20068;-73
2021/09/26 11:24:07;;;;;;;50.38;37.17;;;;;;;;;;6266119;28;20123;-74
2021/09/26 11:27:14;;;;;;;49.28;36.50;;;;;;;;;;6265053;28;20171;-73
2021/09/26 11:30:27;;;;;;;51.13;37.63;;;;;;;;;;6259499;28;20041;-76
2021/09/26 11:33:53;;;;;;;46.83;35.20;;;;;;;;;;6261207;28;20037;-75
2021/09/26 11:36:55;;;;;;;46.28;33.47;;;;;;;;;;6255936;28;20037;-74
2021/09/26 11:39:56;;;;;;;45.80;33.75;;;;;;;;;;6261355;28;20701;-72
2021/09/26 11:43:14;;;;;;;42.03;31.67;;;;;;;;;;6262743;28;20093;-73
2021/09/26 11:46:18;;;;;;;44.13;32.95;;;;;;;;;;6254656;28;20150;-71
2021/09/26 11:49:19;;;;;;;48.20;34.13;;;;;;;;;;6267443;28;20092;-72
2021/09/26 11:52:21;;;;;;;46.35;34.63;;;;;;;;;;6260900;28;20045;-72
2021/09/26 11:55:23;;;;;;;46.78;34.75;;;;;;;;;;6263843;28;20215;-72
2021/09/26 11:58:29;;;;;;;47.78;35.03;;;;;;;;;;6267013;28;20588;-71
2021/09/26 12:01:37;;;;;;;48.78;35.30;;;;;;;;;;6270350;28;20053;-74
2021/09/26 12:04:38;;;;;;;50.33;35.50;;;;;;;;;;6273546;28;20041;-73
2021/09/26 12:07:40;;;;;;;51.13;35.88;;;;;;;;;;6259476;28;20120;-74
2021/09/26 12:10:43;;;;;;;47.35;34.50;;;;;;;;;;6264322;28;20045;-74
2021/09/26 12:13:51;;;;;;;52.28;36.88;;;;;;;;;;6267912;28;20055;-74
2021/09/26 12:16:52;;;;;;;55.40;36.97;;;;;;;;;;6200105;28;20045;-74
2021/09/26 12:19:57;;;;;;;60.20;38.25;;;;;;;;;;6243329;28;79862;-74
2021/09/26 12:22:59;;;;;;;68.60;40.25;;;;;;;;;;6259530;28;20425;-75
2021/09/26 12:26:05;;;;;;;67.50;41.20;;;;;;;;;;6256082;28;20563;-74
2021/09/26 12:29:12;;;;;;;72.95;42.83;;;;;;;;;;6264909;28;20049;-74
2021/09/26 12:32:13;;;;;;;65.55;40.85;;;;;;;;;;6253134;28;20045;-77
2021/09/26 12:35:26;;;;;;;65.60;40.08;;;;;;;;;;6245695;28;20602;-76
2021/09/26 12:38:31;;;;;;;71.65;41.38;;;;;;;;;;6266914;28;20484;-75
2021/09/26 12:41:37;;;;;;;81.78;40.70;;;;;;;;;;6258075;28;20117;-75
2021/09/26 12:44:40;;;;;;;75.13;41.13;;;;;;;;;;6257788;28;20049;-74
2021/09/26 12:47:42;;;;;;;67.40;39.78;;;;;;;;;;6231238;28;20076;-74
2021/09/26 12:50:46;;;;;;;69.22;40.20;;;;;;;;;;6255655;28;20051;-74
2021/09/26 12:53:49;;;;;;;63.45;38.25;;;;;;;;;;6250681;28;20053;-73
2021/09/26 12:56:53;;;;;;;53.20;34.72;;;;;;;;;;6255436;28;20056;-75
2021/09/26 13:00:15;;;;;;;63.00;36.63;;;;;;;;;;6241231;28;20128;-74
2021/09/26 13:03:19;;;;;;;60.80;35.42;;;;;;;;;;6222483;28;20037;-74
2021/09/26 13:06:33;;;;;;;49.60;32.83;;;;;;;;;;6247914;28;20049;-73
2021/09/26 13:09:37;;;;;;;38.85;27.20;;;;;;;;;;6266201;28;20056;-74
2021/09/26 13:12:43;;;;;;;40.03;28.63;;;;;;;;;;6284546;28;20056;-73
2021/09/26 13:15:48;;;;;;;45.22;29.13;;;;;;;;;;6282251;28;20186;-76
2021/09/26 13:18:49;;;;;;;46.45;29.48;;;;;;;;;;6290278;28;20041;-74
2021/09/26 13:22:03;;;;;;;51.60;31.55;;;;;;;;;;6284458;28;20040;-74
2021/09/26 13:25:37;;;;;;;47.35;31.40;;;;;;;;;;6289950;28;20032;-75
2021/09/26 13:28:49;;;;;;;;;;;;;;;;;;6244621;28;20080;-74
2021/09/26 13:31:52;;;;;;;42.42;28.92;;;;;;;;;;6281014;28;19920;-74
2021/09/26 13:34:59;;;;;;;50.20;30.95;;;;;;;;;;6288108;28;20067;-74
2021/09/26 13:38:18;;;;;;;48.70;31.60;;;;;;;;;;6283102;28;20162;-72
2021/09/26 13:41:38;;;;;;;45.40;31.40;;;;;;;;;;6282476;28;20098;-71
2021/09/26 13:44:41;;;;;;;47.78;31.67;;;;;;;;;;6293066;28;20044;-74
2021/09/26 13:47:43;;;;;;;54.60;33.63;;;;;;;;;;6281601;28;20579;-74
2021/09/26 13:50:44;;;;;;;71.53;36.70;;;;;;;;;;6283191;28;20041;-73
2021/09/26 13:53:46;;;;;;;66.00;37.47;;;;;;;;;;6297971;28;20547;-73
2021/09/26 13:56:48;;;;;;;74.95;38.60;;;;;;;;;;6290531;28;20497;-73
2021/09/26 13:59:51;;;;;;;84.78;41.13;;;;;;;;;;6287954;28;20041;-72
2021/09/26 14:02:53;;;;;;;88.90;41.50;;;;;;;;;;6277644;28;20570;-72
2021/09/26 14:05:54;;;;;;;98.28;43.67;;;;;;;;;;6286957;28;20417;-72
2021/09/26 14:08:56;;;;;;;86.65;41.38;;;;;;;;;;6292913;28;20086;-72
2021/09/26 14:11:58;;;;;;;92.13;44.25;;;;;;;;;;6283383;28;20508;-74
2021/09/26 14:15:00;;;;;;;90.30;42.88;;;;;;;;;;6292606;28;20048;-73
2021/09/26 14:18:02;;;;;;;73.50;41.07;;;;;;;;;;6282564;28;20036;-73
2021/09/26 14:21:06;;;;;;;68.10;38.13;;;;;;;;;;6279657;28;20090;-72
2021/09/26 14:24:07;;;;;;;76.80;39.97;;;;;;;;;;6289075;28;20441;-72
2021/09/26 14:27:09;;;;;;;84.03;38.92;;;;;;;;;;6285299;28;20541;-71
2021/09/26 14:30:13;;;;;;;91.65;40.35;;;;;;;;;;6289168;28;20178;-79
2021/09/26 14:33:15;;;;;;;84.95;39.72;;;;;;;;;;6286142;28;20067;-77
2021/09/26 14:36:17;;;;;;;106.40;43.10;;;;;;;;;;6286533;28;20040;-72
2021/09/26 14:39:19;;;;;;;116.22;43.60;;;;;;;;;;6291216;28;20382;-72
2021/09/26 14:42:21;;;;;;;108.93;43.63;;;;;;;;;;6285160;28;20044;-71
2021/09/26 14:45:27;;;;;;;118.70;45.70;;;;;;;;;;6289716;28;20143;-78
2021/09/26 14:48:28;;;;;;;165.43;48.70;;;;;;;;;;6284272;28;20040;-71
2021/09/26 14:51:30;;;;;;;116.13;43.92;;;;;;;;;;6282796;28;20045;-70
2021/09/26 14:54:32;;;;;;;116.15;43.45;;;;;;;;;;6290430;28;20121;-70
2021/09/26 14:57:33;;;;;;;94.57;36.55;;;;;;;;;;6282988;28;20584;-72
2021/09/26 15:00:37;;;;;;;95.43;36.53;;;;;;;;;;6280444;28;20507;-73
2021/09/26 15:03:38;;;;;;;90.60;37.03;;;;;;;;;;6282359;28;20139;-71
2021/09/26 15:06:42;;;;;;;146.45;43.00;;;;;;;;;;6286871;28;20136;-72
2021/09/26 15:09:43;;;;;;;122.13;41.38;;;;;;;;;;6289955;28;20174;-70
2021/09/26 15:12:46;;;;;;;106.90;38.67;;;;;;;;;;6279903;28;20136;-69
2021/09/26 15:15:50;;;;;;;118.75;40.95;;;;;;;;;;6277034;28;20151;-69
2021/09/26 15:18:52;;;;;;;131.55;40.33;;;;;;;;;;6279415;28;20047;-70
2021/09/26 15:21:53;;;;;;;113.45;40.75;;;;;;;;;;6279397;28;20109;-69
2021/09/26 15:24:55;;;;;;;149.52;42.80;;;;;;;;;;6284998;28;20048;-69
2021/09/26 15:27:57;;;;;;;104.80;37.92;;;;;;;;;;6281273;28;20634;-69
2021/09/26 15:31:01;;;;;;;103.82;35.95;;;;;;;;;;6274672;28;20071;-69
2021/09/26 15:34:02;;;;;;;;;;;;;;;;;;6282510;28;20056;-69
2021/09/26 15:37:04;;;;;;;91.32;32.63;;;;;;;;;;6263222;28;20023;-69
2021/09/26 15:40:08;;;;;;;97.05;33.70;;;;;;;;;;6287399;28;20139;-73
2021/09/26 15:43:09;;;;;;;;;;;;;;;;;;6283272;28;20135;-71
2021/09/26 15:46:13;;;;;;;113.53;37.33;;;;;;;;;;6277390;28;20022;-71
2021/09/26 15:49:15;;;;;;;114.45;38.70;;;;;;;;;;6283118;28;20050;-70
2021/09/26 15:52:18;;;;;;;96.55;37.35;;;;;;;;;;6278210;28;20170;-71
2021/09/26 15:55:21;;;;;;;84.97;38.03;;;;;;;;;;6285807;28;20485;-74
2021/09/26 15:58:23;;;;;;;145.13;39.77;;;;;;;;;;6278263;28;20454;-74
2021/09/26 16:01:26;;;;;;;166.20;41.83;;;;;;;;;;6278741;28;20519;-70
2021/09/26 16:04:28;;;;;;;146.00;40.17;;;;;;;;;;6283753;28;20161;-70
2021/09/26 16:07:29;;;;;;;96.13;35.65;;;;;;;;;;6280733;28;20193;-69
2021/09/26 16:10:31;;;;;;;125.95;38.58;;;;;;;;;;6283464;28;20048;-79
2021/09/26 16:13:33;;;;;;;132.98;41.40;;;;;;;;;;6290366;28;20048;-70
2021/09/26 16:16:36;;;;;;;125.30;38.40;;;;;;;;;;6285479;28;20044;-81
2021/09/26 16:19:37;;;;;;;64.13;34.00;;;;;;;;;;6287035;28;20596;-70
2021/09/26 16:22:39;;;;;;;98.25;35.75;;;;;;;;;;6276960;28;20052;-70
2021/09/26 16:25:42;;;;;;;72.25;34.05;;;;;;;;;;6287908;28;20056;-69
2021/09/26 16:28:44;;;;;;;58.05;32.28;;;;;;;;;;6293185;28;20423;-69
2021/09/26 16:31:47;;;;;;;101.63;34.95;;;;;;;;;;6288185;28;20052;-73
2021/09/26 16:34:49;;;;;;;75.32;33.67;;;;;;;;;;6289890;28;20131;-69
2021/09/26 16:37:51;;;;;;;121.75;37.30;;;;;;;;;;6288487;28;20419;-70
2021/09/26 16:40:52;;;;;;;86.10;35.05;;;;;;;;;;6285751;28;20041;-71
2021/09/26 16:43:55;;;;;;;108.25;36.28;;;;;;;;;;6295425;28;20666;-69
2021/09/26 16:46:58;;;;;;;49.38;31.73;;;;;;;;;;6285655;28;20369;-69
2021/09/26 16:50:00;;;;;;;89.78;34.95;;;;;;;;;;6291359;28;20683;-77
2021/09/26 16:53:02;;;;;;;103.32;35.75;;;;;;;;;;6292603;28;20048;-71
2021/09/26 16:56:05;;;;;;;120.70;39.20;;;;;;;;;;6288411;28;20098;-72
2021/09/26 16:59:07;;;;;;;104.88;37.13;;;;;;;;;;6284709;28;20055;-71
2021/09/26 17:02:10;;;;;;;74.57;35.95;;;;;;;;;;6277682;28;20043;-72
2021/09/26 17:05:12;;;;;;;50.67;32.78;;;;;;;;;;6285261;28;20485;-75
2021/09/26 17:08:13;;;;;;;74.22;34.45;;;;;;;;;;6287864;28;20377;-71
2021/09/26 17:11:15;;;;;;;89.72;35.50;;;;;;;;;;6283529;28;20041;-72
2021/09/26 17:14:17;;;;;;;106.30;36.70;;;;;;;;;;6288830;28;20112;-72
2021/09/26 17:17:20;;;;;;;80.88;36.38;;;;;;;;;;6278431;28;20102;-73
2021/09/26 17:20:23;;;;;;;;;;;;;;;;;;6285060;28;20052;-76
2021/09/26 17:23:25;;;;;;;66.22;34.65;;;;;;;;;;6286378;28;19924;-72
2021/09/26 17:26:27;;;;;;;57.00;33.90;;;;;;;;;;6284079;28;20719;-72
2021/09/26 17:29:29;;;;;;;104.80;37.83;;;;;;;;;;6291134;28;23073;-72
2021/09/26 17:32:33;;;;;;;66.93;34.67;;;;;;;;;;6277397;28;20126;-72
2021/09/26 17:35:36;;;;;;;68.60;35.67;;;;;;;;;;6279035;28;20045;-72
2021/09/26 17:38:38;;;;;;;;;;;;;;;;;;6287904;28;20097;-72
2021/09/26 17:41:40;;;;;;;80.22;35.75;;;;;;;;;;6285116;28;20367;-72
2021/09/26 17:44:42;;;;;;;90.53;38.05;;;;;;;;;;6290018;28;20447;-72
2021/09/26 17:47:45;;;;;;;87.53;38.25;;;;;;;;;;6278382;28;20171;-72